Terminal Aerodrome Forecast
Issued by NWS Lake Charles, LA

Home | Current Version | Previous Version | Text Only | Print | Product List | Glossary On
Versions: 1 2 3 4 5 6 7 8 9 10 11 12 13 14 15 16 17 18
357
FTUS44 KLCH 290520
TAFARA
TAF
KARA 290520Z 2906/3006 15010KT P6SM BKN015
     FM290800 14008KT 5SM BR SCT003 BKN007
      TEMPO 2910/2913 2SM BR BKN003
     FM291400 15014G21KT P6SM BKN015
     FM291800 16018G24KT P6SM SCT025 BKN050=

USA.gov is the U.S. government's official web portal to all federal, state and local government web resources and services.